sensor_id;sensor_type;location;lat;lon;timestamp;temperature;humidity
56771;DHT22;42641;59.794;17.616;2023-06-22T00:02:18;20.30;99.90
56771;DHT22;42641;59.794;17.616;2023-06-22T00:04:45;20.30;99.90
56771;DHT22;42641;59.794;17.616;2023-06-22T00:07:11;20.30;99.90
56771;DHT22;42641;59.794;17.616;2023-06-22T00:09:38;20.30;99.90
56771;DHT22;42641;59.794;17.616;2023-06-22T00:12:05;20.30;99.90
56771;DHT22;42641;59.794;17.616;2023-06-22T00:14:31;20.30;99.90
56771;DHT22;42641;59.794;17.616;2023-06-22T00:16:58;20.30;99.90
56771;DHT22;42641;59.794;17.616;2023-06-22T00:19:25;20.40;99.90
56771;DHT22;42641;59.794;17.616;2023-06-22T00:21:51;20.40;99.90
56771;DHT22;42641;59.794;17.616;2023-06-22T00:24:21;20.40;99.90
56771;DHT22;42641;59.794;17.616;2023-06-22T00:26:48;20.40;99.90
56771;DHT22;42641;59.794;17.616;2023-06-22T00:29:16;20.40;99.90
56771;DHT22;42641;59.794;17.616;2023-06-22T00:31:42;20.40;99.90
56771;DHT22;42641;59.794;17.616;2023-06-22T00:34:09;20.40;99.90
56771;DHT22;42641;59.794;17.616;2023-06-22T00:36:36;20.40;99.90
56771;DHT22;42641;59.794;17.616;2023-06-22T00:39:03;20.50;99.90
56771;DHT22;42641;59.794;17.616;2023-06-22T00:41:30;20.40;99.90
56771;DHT22;42641;59.794;17.616;2023-06-22T00:43:57;20.40;99.90
56771;DHT22;42641;59.794;17.616;2023-06-22T00:46:24;20.40;99.90
56771;DHT22;42641;59.794;17.616;2023-06-22T00:48:51;20.30;99.90
56771;DHT22;42641;59.794;17.616;2023-06-22T00:51:19;20.30;99.90
56771;DHT22;42641;59.794;17.616;2023-06-22T00:53:51;20.30;99.90
56771;DHT22;42641;59.794;17.616;2023-06-22T00:56:18;20.30;99.90
56771;DHT22;42641;59.794;17.616;2023-06-22T00:58:46;20.30;99.90
56771;DHT22;42641;59.794;17.616;2023-06-22T01:01:13;20.40;99.90
56771;DHT22;42641;59.794;17.616;2023-06-22T01:03:40;20.40;99.90
56771;DHT22;42641;59.794;17.616;2023-06-22T01:06:10;20.30;99.90
56771;DHT22;42641;59.794;17.616;2023-06-22T01:08:48;20.40;99.90
56771;DHT22;42641;59.794;17.616;2023-06-22T01:11:28;20.40;99.90
56771;DHT22;42641;59.794;17.616;2023-06-22T01:14:03;20.30;99.90
56771;DHT22;42641;59.794;17.616;2023-06-22T01:16:32;20.20;99.90
56771;DHT22;42641;59.794;17.616;2023-06-22T01:22:08;20.30;99.90
56771;DHT22;42641;59.794;17.616;2023-06-22T01:30:45;20.30;99.90
56771;DHT22;42641;59.794;17.616;2023-06-22T01:33:13;20.30;99.90
56771;DHT22;42641;59.794;17.616;2023-06-22T01:35:40;20.30;99.90
56771;DHT22;42641;59.794;17.616;2023-06-22T01:38:08;20.30;99.90
56771;DHT22;42641;59.794;17.616;2023-06-22T01:40:36;20.20;99.90
56771;DHT22;42641;59.794;17.616;2023-06-22T01:43:03;20.20;99.90
56771;DHT22;42641;59.794;17.616;2023-06-22T01:45:30;20.10;99.90
56771;DHT22;42641;59.794;17.616;2023-06-22T01:47:57;20.20;99.90
56771;DHT22;42641;59.794;17.616;2023-06-22T01:50:24;20.10;99.90
56771;DHT22;42641;59.794;17.616;2023-06-22T01:52:50;20.20;99.90
56771;DHT22;42641;59.794;17.616;2023-06-22T01:55:17;20.20;99.90
56771;DHT22;42641;59.794;17.616;2023-06-22T01:57:43;20.20;99.90
56771;DHT22;42641;59.794;17.616;2023-06-22T02:00:13;20.20;99.90
56771;DHT22;42641;59.794;17.616;2023-06-22T02:03:05;20.20;99.90
56771;DHT22;42641;59.794;17.616;2023-06-22T02:05:39;20.20;99.90
56771;DHT22;42641;59.794;17.616;2023-06-22T02:08:20;20.20;99.90
56771;DHT22;42641;59.794;17.616;2023-06-22T02:10:48;20.20;99.90
56771;DHT22;42641;59.794;17.616;2023-06-22T02:13:15;20.20;99.90
56771;DHT22;42641;59.794;17.616;2023-06-22T02:15:43;20.20;99.90
56771;DHT22;42641;59.794;17.616;2023-06-22T02:18:13;20.20;99.90
56771;DHT22;42641;59.794;17.616;2023-06-22T02:20:40;20.10;99.90
56771;DHT22;42641;59.794;17.616;2023-06-22T02:23:07;20.10;99.90
56771;DHT22;42641;59.794;17.616;2023-06-22T02:25:35;20.10;99.90
56771;DHT22;42641;59.794;17.616;2023-06-22T02:28:02;20.10;99.90
56771;DHT22;42641;59.794;17.616;2023-06-22T02:30:29;20.10;99.90
56771;DHT22;42641;59.794;17.616;2023-06-22T02:32:55;20.20;99.90
56771;DHT22;42641;59.794;17.616;2023-06-22T02:35:26;20.20;99.90
56771;DHT22;42641;59.794;17.616;2023-06-22T02:37:52;20.30;99.90
56771;DHT22;42641;59.794;17.616;2023-06-22T02:40:19;20.30;99.90
56771;DHT22;42641;59.794;17.616;2023-06-22T02:42:45;20.30;99.90
56771;DHT22;42641;59.794;17.616;2023-06-22T02:45:12;20.30;99.90
56771;DHT22;42641;59.794;17.616;2023-06-22T02:47:38;20.20;99.90
56771;DHT22;42641;59.794;17.616;2023-06-22T02:50:05;20.20;99.90
56771;DHT22;42641;59.794;17.616;2023-06-22T02:52:34;20.20;99.90
56771;DHT22;42641;59.794;17.616;2023-06-22T02:55:00;20.20;99.90
56771;DHT22;42641;59.794;17.616;2023-06-22T02:57:28;20.10;99.90
56771;DHT22;42641;59.794;17.616;2023-06-22T02:59:55;20.10;99.90
56771;DHT22;42641;59.794;17.616;2023-06-22T03:02:22;20.10;99.90
56771;DHT22;42641;59.794;17.616;2023-06-22T03:04:48;20.20;99.90
56771;DHT22;42641;59.794;17.616;2023-06-22T03:07:15;20.20;99.90
56771;DHT22;42641;59.794;17.616;2023-06-22T03:09:43;20.20;99.90
56771;DHT22;42641;59.794;17.616;2023-06-22T03:12:10;20.20;99.90
56771;DHT22;42641;59.794;17.616;2023-06-22T03:14:49;20.20;99.90
56771;DHT22;42641;59.794;17.616;2023-06-22T03:17:17;20.20;99.90
56771;DHT22;42641;59.794;17.616;2023-06-22T03:19:43;20.20;99.90
56771;DHT22;42641;59.794;17.616;2023-06-22T03:22:10;20.30;99.90
56771;DHT22;42641;59.794;17.616;2023-06-22T03:24:36;20.30;99.90
56771;DHT22;42641;59.794;17.616;2023-06-22T03:27:05;20.30;99.90
56771;DHT22;42641;59.794;17.616;2023-06-22T03:29:33;20.30;99.90
56771;DHT22;42641;59.794;17.616;2023-06-22T03:32:00;20.40;99.90
56771;DHT22;42641;59.794;17.616;2023-06-22T03:34:27;20.30;99.90
56771;DHT22;42641;59.794;17.616;2023-06-22T03:36:54;20.30;99.90
56771;DHT22;42641;59.794;17.616;2023-06-22T03:39:20;20.40;99.90
56771;DHT22;42641;59.794;17.616;2023-06-22T03:41:47;20.40;99.90
56771;DHT22;42641;59.794;17.616;2023-06-22T03:44:13;20.50;99.90
56771;DHT22;42641;59.794;17.616;2023-06-22T03:46:40;20.50;99.90
56771;DHT22;42641;59.794;17.616;2023-06-22T03:49:06;20.50;99.90
56771;DHT22;42641;59.794;17.616;2023-06-22T03:51:33;20.60;99.90
56771;DHT22;42641;59.794;17.616;2023-06-22T03:53:59;20.50;99.90
56771;DHT22;42641;59.794;17.616;2023-06-22T03:56:26;20.50;99.90
56771;DHT22;42641;59.794;17.616;2023-06-22T03:58:52;20.60;99.90
56771;DHT22;42641;59.794;17.616;2023-06-22T04:01:19;20.60;99.90
56771;DHT22;42641;59.794;17.616;2023-06-22T04:03:45;20.60;99.90
56771;DHT22;42641;59.794;17.616;2023-06-22T04:06:14;20.50;99.90
56771;DHT22;42641;59.794;17.616;2023-06-22T04:08:40;20.40;99.90
56771;DHT22;42641;59.794;17.616;2023-06-22T04:11:07;20.40;99.90
56771;DHT22;42641;59.794;17.616;2023-06-22T04:13:33;20.40;99.90
56771;DHT22;42641;59.794;17.616;2023-06-22T04:16:00;20.40;99.90
56771;DHT22;42641;59.794;17.616;2023-06-22T04:18:27;20.40;99.90
56771;DHT22;42641;59.794;17.616;2023-06-22T04:20:54;20.50;99.90
56771;DHT22;42641;59.794;17.616;2023-06-22T04:23:20;20.50;99.90
56771;DHT22;42641;59.794;17.616;2023-06-22T04:25:46;20.50;99.90
56771;DHT22;42641;59.794;17.616;2023-06-22T04:28:13;20.40;99.90
56771;DHT22;42641;59.794;17.616;2023-06-22T04:30:39;20.50;99.90
56771;DHT22;42641;59.794;17.616;2023-06-22T04:33:13;20.60;99.90
56771;DHT22;42641;59.794;17.616;2023-06-22T04:35:40;20.60;99.90
56771;DHT22;42641;59.794;17.616;2023-06-22T04:38:07;20.80;99.90
56771;DHT22;42641;59.794;17.616;2023-06-22T04:40:34;20.70;99.90
56771;DHT22;42641;59.794;17.616;2023-06-22T04:43:00;20.70;99.90
56771;DHT22;42641;59.794;17.616;2023-06-22T04:45:28;20.80;99.90
56771;DHT22;42641;59.794;17.616;2023-06-22T04:47:55;20.90;99.90
56771;DHT22;42641;59.794;17.616;2023-06-22T04:50:21;21.00;99.90
56771;DHT22;42641;59.794;17.616;2023-06-22T04:52:50;20.90;99.90
56771;DHT22;42641;59.794;17.616;2023-06-22T04:55:18;20.80;99.90
56771;DHT22;42641;59.794;17.616;2023-06-22T04:57:46;20.70;99.90
56771;DHT22;42641;59.794;17.616;2023-06-22T05:00:19;20.70;99.90
56771;DHT22;42641;59.794;17.616;2023-06-22T05:02:49;20.70;99.90
56771;DHT22;42641;59.794;17.616;2023-06-22T05:05:17;20.80;99.90
56771;DHT22;42641;59.794;17.616;2023-06-22T05:07:45;20.90;99.90
56771;DHT22;42641;59.794;17.616;2023-06-22T05:10:14;21.00;99.90
56771;DHT22;42641;59.794;17.616;2023-06-22T05:12:41;20.90;99.90
56771;DHT22;42641;59.794;17.616;2023-06-22T05:15:08;20.80;99.90
56771;DHT22;42641;59.794;17.616;2023-06-22T05:17:36;20.70;99.90
56771;DHT22;42641;59.794;17.616;2023-06-22T05:20:03;20.70;99.90
56771;DHT22;42641;59.794;17.616;2023-06-22T05:22:32;20.70;99.90
56771;DHT22;42641;59.794;17.616;2023-06-22T05:24:58;20.80;99.90
56771;DHT22;42641;59.794;17.616;2023-06-22T05:27:25;20.80;99.90
56771;DHT22;42641;59.794;17.616;2023-06-22T05:29:51;20.90;99.90
56771;DHT22;42641;59.794;17.616;2023-06-22T05:32:18;21.00;99.90
56771;DHT22;42641;59.794;17.616;2023-06-22T05:34:44;20.90;99.90
56771;DHT22;42641;59.794;17.616;2023-06-22T05:37:11;20.80;99.90
56771;DHT22;42641;59.794;17.616;2023-06-22T05:39:38;20.90;99.90
56771;DHT22;42641;59.794;17.616;2023-06-22T05:42:07;20.90;99.90
56771;DHT22;42641;59.794;17.616;2023-06-22T05:44:34;21.00;99.90
56771;DHT22;42641;59.794;17.616;2023-06-22T05:47:00;21.00;99.90
56771;DHT22;42641;59.794;17.616;2023-06-22T05:49:26;20.90;99.90
56771;DHT22;42641;59.794;17.616;2023-06-22T05:51:59;21.00;99.90
56771;DHT22;42641;59.794;17.616;2023-06-22T05:54:27;21.10;99.90
56771;DHT22;42641;59.794;17.616;2023-06-22T05:56:54;21.20;99.90
56771;DHT22;42641;59.794;17.616;2023-06-22T05:59:20;21.30;99.90
56771;DHT22;42641;59.794;17.616;2023-06-22T06:01:46;21.40;99.90
56771;DHT22;42641;59.794;17.616;2023-06-22T06:04:19;21.30;99.90
56771;DHT22;42641;59.794;17.616;2023-06-22T06:06:46;21.20;99.90
56771;DHT22;42641;59.794;17.616;2023-06-22T06:09:15;21.10;99.90
56771;DHT22;42641;59.794;17.616;2023-06-22T06:11:42;21.20;99.90
56771;DHT22;42641;59.794;17.616;2023-06-22T06:14:08;21.20;99.90
56771;DHT22;42641;59.794;17.616;2023-06-22T06:16:35;21.30;99.90
56771;DHT22;42641;59.794;17.616;2023-06-22T06:19:01;21.50;99.90
56771;DHT22;42641;59.794;17.616;2023-06-22T06:21:28;21.40;99.90
56771;DHT22;42641;59.794;17.616;2023-06-22T06:23:54;21.40;99.90
56771;DHT22;42641;59.794;17.616;2023-06-22T06:26:20;21.70;99.90
56771;DHT22;42641;59.794;17.616;2023-06-22T06:28:55;21.90;99.90
56771;DHT22;42641;59.794;17.616;2023-06-22T06:31:21;22.10;99.90
56771;DHT22;42641;59.794;17.616;2023-06-22T06:33:48;22.10;99.90
56771;DHT22;42641;59.794;17.616;2023-06-22T06:36:15;22.20;99.90
56771;DHT22;42641;59.794;17.616;2023-06-22T06:38:42;22.30;99.90
56771;DHT22;42641;59.794;17.616;2023-06-22T06:41:08;22.20;99.90
56771;DHT22;42641;59.794;17.616;2023-06-22T06:43:35;22.30;99.90
56771;DHT22;42641;59.794;17.616;2023-06-22T06:46:01;22.20;99.90
56771;DHT22;42641;59.794;17.616;2023-06-22T06:48:29;22.20;99.90
56771;DHT22;42641;59.794;17.616;2023-06-22T06:50:55;22.10;99.90
56771;DHT22;42641;59.794;17.616;2023-06-22T06:53:22;22.20;99.90
56771;DHT22;42641;59.794;17.616;2023-06-22T06:55:48;22.10;99.90
56771;DHT22;42641;59.794;17.616;2023-06-22T06:58:15;22.00;99.90
56771;DHT22;42641;59.794;17.616;2023-06-22T07:00:42;21.80;99.90
56771;DHT22;42641;59.794;17.616;2023-06-22T07:03:09;21.80;99.90
56771;DHT22;42641;59.794;17.616;2023-06-22T07:05:36;21.80;99.90
56771;DHT22;42641;59.794;17.616;2023-06-22T07:08:02;21.70;99.90
56771;DHT22;42641;59.794;17.616;2023-06-22T07:10:29;21.80;99.90
56771;DHT22;42641;59.794;17.616;2023-06-22T07:12:56;21.90;99.90
56771;DHT22;42641;59.794;17.616;2023-06-22T07:15:23;22.10;99.90
56771;DHT22;42641;59.794;17.616;2023-06-22T07:17:49;22.20;99.90
56771;DHT22;42641;59.794;17.616;2023-06-22T07:20:16;22.30;99.90
56771;DHT22;42641;59.794;17.616;2023-06-22T07:22:44;22.30;99.90
56771;DHT22;42641;59.794;17.616;2023-06-22T07:25:13;22.30;99.90
56771;DHT22;42641;59.794;17.616;2023-06-22T07:27:58;22.40;99.90
56771;DHT22;42641;59.794;17.616;2023-06-22T07:30:25;22.40;99.90
56771;DHT22;42641;59.794;17.616;2023-06-22T07:32:51;22.50;99.90
56771;DHT22;42641;59.794;17.616;2023-06-22T07:35:18;22.50;99.90
56771;DHT22;42641;59.794;17.616;2023-06-22T07:37:44;22.40;99.90
56771;DHT22;42641;59.794;17.616;2023-06-22T07:40:11;22.60;99.90
56771;DHT22;42641;59.794;17.616;2023-06-22T07:42:37;22.70;99.90
56771;DHT22;42641;59.794;17.616;2023-06-22T07:45:04;22.90;99.90
56771;DHT22;42641;59.794;17.616;2023-06-22T07:47:34;22.90;99.90
56771;DHT22;42641;59.794;17.616;2023-06-22T07:50:02;23.00;99.90
56771;DHT22;42641;59.794;17.616;2023-06-22T07:52:30;23.20;99.90
56771;DHT22;42641;59.794;17.616;2023-06-22T07:54:57;23.20;99.90
56771;DHT22;42641;59.794;17.616;2023-06-22T07:57:24;23.20;99.90
56771;DHT22;42641;59.794;17.616;2023-06-22T07:59:58;23.10;99.90
56771;DHT22;42641;59.794;17.616;2023-06-22T08:02:26;23.10;99.90
56771;DHT22;42641;59.794;17.616;2023-06-22T08:04:52;23.20;99.90
56771;DHT22;42641;59.794;17.616;2023-06-22T08:07:19;23.20;99.90
56771;DHT22;42641;59.794;17.616;2023-06-22T08:09:48;23.40;99.90
56771;DHT22;42641;59.794;17.616;2023-06-22T08:12:16;23.40;99.90
56771;DHT22;42641;59.794;17.616;2023-06-22T08:14:42;23.30;99.90
56771;DHT22;42641;59.794;17.616;2023-06-22T08:17:12;23.40;99.90
56771;DHT22;42641;59.794;17.616;2023-06-22T08:19:39;23.50;99.90
56771;DHT22;42641;59.794;17.616;2023-06-22T08:22:06;23.40;99.90
56771;DHT22;42641;59.794;17.616;2023-06-22T08:24:32;23.50;99.90
56771;DHT22;42641;59.794;17.616;2023-06-22T08:26:59;23.50;99.90
56771;DHT22;42641;59.794;17.616;2023-06-22T08:29:26;23.50;99.90
56771;DHT22;42641;59.794;17.616;2023-06-22T08:31:52;23.40;99.90
56771;DHT22;42641;59.794;17.616;2023-06-22T08:34:19;23.30;99.90
56771;DHT22;42641;59.794;17.616;2023-06-22T08:36:48;23.50;99.90
56771;DHT22;42641;59.794;17.616;2023-06-22T08:39:19;23.70;99.90
56771;DHT22;42641;59.794;17.616;2023-06-22T08:41:47;24.00;99.90
56771;DHT22;42641;59.794;17.616;2023-06-22T08:44:13;24.10;99.90
56771;DHT22;42641;59.794;17.616;2023-06-22T08:46:40;24.00;99.90
56771;DHT22;42641;59.794;17.616;2023-06-22T08:49:07;23.80;99.90
56771;DHT22;42641;59.794;17.616;2023-06-22T08:51:36;23.70;99.90
56771;DHT22;42641;59.794;17.616;2023-06-22T08:54:02;24.00;99.90
56771;DHT22;42641;59.794;17.616;2023-06-22T08:56:29;24.20;99.90
56771;DHT22;42641;59.794;17.616;2023-06-22T08:58:55;24.60;99.90
56771;DHT22;42641;59.794;17.616;2023-06-22T09:01:21;24.80;99.90
56771;DHT22;42641;59.794;17.616;2023-06-22T09:03:48;25.20;99.90
56771;DHT22;42641;59.794;17.616;2023-06-22T09:06:21;25.10;99.90
56771;DHT22;42641;59.794;17.616;2023-06-22T09:08:48;25.30;99.90
56771;DHT22;42641;59.794;17.616;2023-06-22T09:11:15;25.60;99.90
56771;DHT22;42641;59.794;17.616;2023-06-22T09:13:41;25.90;99.90
56771;DHT22;42641;59.794;17.616;2023-06-22T09:16:08;25.70;99.90
56771;DHT22;42641;59.794;17.616;2023-06-22T09:18:35;25.70;99.90
56771;DHT22;42641;59.794;17.616;2023-06-22T09:21:02;25.80;99.90
56771;DHT22;42641;59.794;17.616;2023-06-22T09:23:29;25.80;99.90
56771;DHT22;42641;59.794;17.616;2023-06-22T09:25:55;26.00;99.90
56771;DHT22;42641;59.794;17.616;2023-06-22T09:28:21;26.10;99.90
56771;DHT22;42641;59.794;17.616;2023-06-22T09:30:48;26.20;99.90
56771;DHT22;42641;59.794;17.616;2023-06-22T09:33:14;26.20;99.90
56771;DHT22;42641;59.794;17.616;2023-06-22T09:35:41;26.30;99.90
56771;DHT22;42641;59.794;17.616;2023-06-22T09:38:07;26.00;99.90
56771;DHT22;42641;59.794;17.616;2023-06-22T09:40:33;25.70;99.90
56771;DHT22;42641;59.794;17.616;2023-06-22T09:43:06;25.70;99.90
56771;DHT22;42641;59.794;17.616;2023-06-22T09:45:32;25.60;99.90
56771;DHT22;42641;59.794;17.616;2023-06-22T09:47:59;25.80;99.90
56771;DHT22;42641;59.794;17.616;2023-06-22T09:50:25;26.20;99.90
56771;DHT22;42641;59.794;17.616;2023-06-22T09:52:51;25.90;99.90
56771;DHT22;42641;59.794;17.616;2023-06-22T09:55:21;26.10;99.90
56771;DHT22;42641;59.794;17.616;2023-06-22T09:57:47;26.40;99.90
56771;DHT22;42641;59.794;17.616;2023-06-22T10:00:16;26.60;99.90
56771;DHT22;42641;59.794;17.616;2023-06-22T10:02:43;26.50;99.90
56771;DHT22;42641;59.794;17.616;2023-06-22T10:05:09;26.60;99.90
56771;DHT22;42641;59.794;17.616;2023-06-22T10:07:36;26.80;99.90
56771;DHT22;42641;59.794;17.616;2023-06-22T10:10:09;27.10;99.90
56771;DHT22;42641;59.794;17.616;2023-06-22T10:12:35;27.10;99.90
56771;DHT22;42641;59.794;17.616;2023-06-22T10:15:02;27.00;99.90
56771;DHT22;42641;59.794;17.616;2023-06-22T10:17:30;26.90;99.90
56771;DHT22;42641;59.794;17.616;2023-06-22T10:19:57;27.00;99.90
56771;DHT22;42641;59.794;17.616;2023-06-22T10:22:23;27.40;99.90
56771;DHT22;42641;59.794;17.616;2023-06-22T10:24:49;27.80;99.90
56771;DHT22;42641;59.794;17.616;2023-06-22T10:27:16;28.40;99.90
56771;DHT22;42641;59.794;17.616;2023-06-22T10:29:42;28.30;99.60
56771;DHT22;42641;59.794;17.616;2023-06-22T10:32:09;28.30;99.20
56771;DHT22;42641;59.794;17.616;2023-06-22T10:34:35;28.00;99.70
56771;DHT22;42641;59.794;17.616;2023-06-22T10:37:01;27.90;98.90
56771;DHT22;42641;59.794;17.616;2023-06-22T10:39:28;27.80;99.00
56771;DHT22;42641;59.794;17.616;2023-06-22T10:41:54;28.10;99.00
56771;DHT22;42641;59.794;17.616;2023-06-22T10:44:22;28.40;98.10
56771;DHT22;42641;59.794;17.616;2023-06-22T10:46:48;28.60;98.60
56771;DHT22;42641;59.794;17.616;2023-06-22T10:49:15;29.00;97.60
56771;DHT22;42641;59.794;17.616;2023-06-22T10:51:41;29.10;98.60
56771;DHT22;42641;59.794;17.616;2023-06-22T10:54:08;29.10;97.50
56771;DHT22;42641;59.794;17.616;2023-06-22T10:56:34;29.20;97.10
56771;DHT22;42641;59.794;17.616;2023-06-22T10:59:00;29.00;96.90
56771;DHT22;42641;59.794;17.616;2023-06-22T11:01:28;28.90;96.70
56771;DHT22;42641;59.794;17.616;2023-06-22T11:03:54;29.20;95.50
56771;DHT22;42641;59.794;17.616;2023-06-22T11:06:21;29.50;96.00
56771;DHT22;42641;59.794;17.616;2023-06-22T11:08:47;29.90;95.00
56771;DHT22;42641;59.794;17.616;2023-06-22T11:11:13;30.20;94.90
56771;DHT22;42641;59.794;17.616;2023-06-22T11:13:40;30.50;93.40
56771;DHT22;42641;59.794;17.616;2023-06-22T11:16:06;30.30;93.90
56771;DHT22;42641;59.794;17.616;2023-06-22T11:18:33;30.40;93.30
56771;DHT22;42641;59.794;17.616;2023-06-22T11:20:59;31.00;93.20
56771;DHT22;42641;59.794;17.616;2023-06-22T11:23:26;31.40;92.20
56771;DHT22;42641;59.794;17.616;2023-06-22T11:25:54;31.60;91.30
56771;DHT22;42641;59.794;17.616;2023-06-22T11:28:21;32.00;90.10
56771;DHT22;42641;59.794;17.616;2023-06-22T11:30:47;31.30;90.00
56771;DHT22;42641;59.794;17.616;2023-06-22T11:33:14;31.40;89.00
56771;DHT22;42641;59.794;17.616;2023-06-22T11:35:40;31.40;89.10
56771;DHT22;42641;59.794;17.616;2023-06-22T11:38:06;31.00;87.10
56771;DHT22;42641;59.794;17.616;2023-06-22T11:40:33;30.60;87.00
56771;DHT22;42641;59.794;17.616;2023-06-22T11:43:00;31.10;86.70
56771;DHT22;42641;59.794;17.616;2023-06-22T11:45:26;32.10;84.10
56771;DHT22;42641;59.794;17.616;2023-06-22T11:47:53;32.10;83.10
56771;DHT22;42641;59.794;17.616;2023-06-22T11:50:19;32.10;82.60
56771;DHT22;42641;59.794;17.616;2023-06-22T11:52:46;31.80;82.50
56771;DHT22;42641;59.794;17.616;2023-06-22T11:55:12;31.60;82.30
56771;DHT22;42641;59.794;17.616;2023-06-22T11:57:53;32.20;82.70
56771;DHT22;42641;59.794;17.616;2023-06-22T12:00:20;33.20;79.80
56771;DHT22;42641;59.794;17.616;2023-06-22T12:02:49;34.20;78.10
56771;DHT22;42641;59.794;17.616;2023-06-22T12:05:21;33.60;75.10
56771;DHT22;42641;59.794;17.616;2023-06-22T12:07:49;32.90;77.40
56771;DHT22;42641;59.794;17.616;2023-06-22T12:10:15;33.50;75.60
56771;DHT22;42641;59.794;17.616;2023-06-22T12:12:42;32.70;75.30
56771;DHT22;42641;59.794;17.616;2023-06-22T12:15:09;32.70;75.50
56771;DHT22;42641;59.794;17.616;2023-06-22T12:17:36;32.80;73.00
56771;DHT22;42641;59.794;17.616;2023-06-22T12:20:03;33.50;72.50
56771;DHT22;42641;59.794;17.616;2023-06-22T12:22:32;33.20;72.50
56771;DHT22;42641;59.794;17.616;2023-06-22T12:24:59;33.20;71.50
56771;DHT22;42641;59.794;17.616;2023-06-22T12:27:25;33.40;71.90
56771;DHT22;42641;59.794;17.616;2023-06-22T12:29:52;33.30;74.00
56771;DHT22;42641;59.794;17.616;2023-06-22T12:32:18;33.70;71.30
56771;DHT22;42641;59.794;17.616;2023-06-22T12:34:45;33.70;70.20
56771;DHT22;42641;59.794;17.616;2023-06-22T12:37:11;33.70;72.20
56771;DHT22;42641;59.794;17.616;2023-06-22T12:39:40;34.10;69.90
56771;DHT22;42641;59.794;17.616;2023-06-22T12:42:08;35.00;69.20
56771;DHT22;42641;59.794;17.616;2023-06-22T12:44:38;35.40;66.60
56771;DHT22;42641;59.794;17.616;2023-06-22T12:47:05;35.50;65.40
56771;DHT22;42641;59.794;17.616;2023-06-22T12:49:31;35.40;66.40
56771;DHT22;42641;59.794;17.616;2023-06-22T12:51:58;35.00;68.50
56771;DHT22;42641;59.794;17.616;2023-06-22T12:54:24;35.00;64.50
56771;DHT22;42641;59.794;17.616;2023-06-22T12:56:51;35.20;64.80
56771;DHT22;42641;59.794;17.616;2023-06-22T12:59:17;36.10;65.40
56771;DHT22;42641;59.794;17.616;2023-06-22T13:01:43;36.10;62.00
56771;DHT22;42641;59.794;17.616;2023-06-22T13:04:12;36.10;59.90
56771;DHT22;42641;59.794;17.616;2023-06-22T13:06:41;36.20;60.00
56771;DHT22;42641;59.794;17.616;2023-06-22T13:09:09;36.10;60.30
56771;DHT22;42641;59.794;17.616;2023-06-22T13:11:36;36.10;58.90
56771;DHT22;42641;59.794;17.616;2023-06-22T13:14:02;35.70;58.50
56771;DHT22;42641;59.794;17.616;2023-06-22T13:16:29;34.90;60.40
56771;DHT22;42641;59.794;17.616;2023-06-22T13:18:55;34.70;62.20
56771;DHT22;42641;59.794;17.616;2023-06-22T13:21:22;35.30;59.60
56771;DHT22;42641;59.794;17.616;2023-06-22T13:23:48;35.90;60.60
56771;DHT22;42641;59.794;17.616;2023-06-22T13:26:14;36.20;58.00
56771;DHT22;42641;59.794;17.616;2023-06-22T13:28:41;35.90;58.00
56771;DHT22;42641;59.794;17.616;2023-06-22T13:31:07;35.50;58.60
56771;DHT22;42641;59.794;17.616;2023-06-22T13:33:34;35.90;58.30
56771;DHT22;42641;59.794;17.616;2023-06-22T13:36:00;36.40;59.30
56771;DHT22;42641;59.794;17.616;2023-06-22T13:38:27;36.30;57.30
56771;DHT22;42641;59.794;17.616;2023-06-22T13:40:53;36.70;57.80
56771;DHT22;42641;59.794;17.616;2023-06-22T13:43:22;37.40;56.70
56771;DHT22;42641;59.794;17.616;2023-06-22T13:45:48;37.50;55.10
56771;DHT22;42641;59.794;17.616;2023-06-22T13:48:15;37.80;54.30
56771;DHT22;42641;59.794;17.616;2023-06-22T13:50:42;38.00;55.10
56771;DHT22;42641;59.794;17.616;2023-06-22T13:53:09;38.20;53.30
56771;DHT22;42641;59.794;17.616;2023-06-22T13:55:35;38.10;53.30
56771;DHT22;42641;59.794;17.616;2023-06-22T13:58:02;37.30;53.80
56771;DHT22;42641;59.794;17.616;2023-06-22T14:00:28;37.00;54.00
56771;DHT22;42641;59.794;17.616;2023-06-22T14:02:54;36.50;53.80
56771;DHT22;42641;59.794;17.616;2023-06-22T14:05:21;36.40;55.90
56771;DHT22;42641;59.794;17.616;2023-06-22T14:07:47;36.60;55.10
56771;DHT22;42641;59.794;17.616;2023-06-22T14:10:14;35.80;54.00
56771;DHT22;42641;59.794;17.616;2023-06-22T14:12:40;35.60;55.50
56771;DHT22;42641;59.794;17.616;2023-06-22T14:15:07;36.60;55.30
56771;DHT22;42641;59.794;17.616;2023-06-22T14:17:33;37.00;55.10
56771;DHT22;42641;59.794;17.616;2023-06-22T14:20:00;36.30;54.90
56771;DHT22;42641;59.794;17.616;2023-06-22T14:22:26;35.20;55.40
56771;DHT22;42641;59.794;17.616;2023-06-22T14:24:55;34.20;55.90
56771;DHT22;42641;59.794;17.616;2023-06-22T14:27:24;34.00;56.40
56771;DHT22;42641;59.794;17.616;2023-06-22T14:29:51;34.80;56.60
56771;DHT22;42641;59.794;17.616;2023-06-22T14:32:17;35.80;55.10
56771;DHT22;42641;59.794;17.616;2023-06-22T14:34:44;36.30;54.60
56771;DHT22;42641;59.794;17.616;2023-06-22T14:37:10;36.70;53.30
56771;DHT22;42641;59.794;17.616;2023-06-22T14:39:39;37.60;52.90
56771;DHT22;42641;59.794;17.616;2023-06-22T14:42:06;37.40;52.50
56771;DHT22;42641;59.794;17.616;2023-06-22T14:44:32;37.60;53.50
56771;DHT22;42641;59.794;17.616;2023-06-22T14:46:59;38.20;52.10
56771;DHT22;42641;59.794;17.616;2023-06-22T14:49:26;37.70;52.10
56771;DHT22;42641;59.794;17.616;2023-06-22T14:51:52;37.80;52.00
56771;DHT22;42641;59.794;17.616;2023-06-22T14:54:19;37.40;50.80
56771;DHT22;42641;59.794;17.616;2023-06-22T14:56:45;36.70;52.40
56771;DHT22;42641;59.794;17.616;2023-06-22T14:59:12;37.00;53.00
56771;DHT22;42641;59.794;17.616;2023-06-22T15:01:39;37.70;53.00
56771;DHT22;42641;59.794;17.616;2023-06-22T15:04:05;38.10;51.10
56771;DHT22;42641;59.794;17.616;2023-06-22T15:06:32;37.50;51.20
56771;DHT22;42641;59.794;17.616;2023-06-22T15:08:58;37.10;51.90
56771;DHT22;42641;59.794;17.616;2023-06-22T15:11:25;36.50;52.80
56771;DHT22;42641;59.794;17.616;2023-06-22T15:13:51;35.70;52.90
56771;DHT22;42641;59.794;17.616;2023-06-22T15:16:18;34.50;53.40
56771;DHT22;42641;59.794;17.616;2023-06-22T15:18:44;34.60;54.60
56771;DHT22;42641;59.794;17.616;2023-06-22T15:21:12;34.90;53.70
56771;DHT22;42641;59.794;17.616;2023-06-22T15:23:38;35.90;52.10
56771;DHT22;42641;59.794;17.616;2023-06-22T15:26:05;36.40;51.90